createdAt,value
2019-03-21T00:00:55.860Z,34.33
2019-03-21T00:03:23.330Z,36.67
2019-03-21T00:05:50.781Z,37.47
2019-03-21T00:08:18.235Z,39.37
2019-03-21T00:11:19.604Z,43.13
2019-03-21T00:13:47.365Z,40.97
2019-03-21T00:16:14.896Z,47.23
2019-03-21T00:18:42.580Z,46.47
2019-03-21T00:21:09.954Z,40.63
2019-03-21T00:23:37.293Z,38.03
2019-03-21T00:26:04.888Z,39.47
2019-03-21T00:28:32.256Z,41.97
2019-03-21T00:30:59.802Z,38.10
2019-03-21T00:33:27.191Z,39.67
2019-03-21T00:35:54.553Z,35.13
2019-03-21T00:38:22.038Z,33.53
2019-03-21T00:40:49.514Z,33.37
2019-03-21T00:43:16.961Z,32.20
2019-03-21T00:45:44.409Z,32.07
2019-03-21T00:48:13.325Z,34.83
2019-03-21T00:50:40.970Z,34.13
2019-03-21T00:53:08.522Z,34.13
2019-03-21T00:55:36.727Z,37.60
2019-03-21T00:58:04.336Z,41.40
2019-03-21T01:00:35.183Z,45.03
2019-03-21T01:03:03.849Z,44.10
2019-03-21T01:05:31.575Z,45.07
2019-03-21T01:07:59.190Z,46.93
2019-03-21T01:10:27.071Z,50.53
2019-03-21T01:12:54.526Z,48.20
2019-03-21T01:15:22.098Z,51.70
2019-03-21T01:17:49.748Z,45.37
2019-03-21T01:20:17.304Z,48.07
2019-03-21T01:22:44.815Z,50.13
2019-03-21T01:25:18.462Z,48.00
2019-03-21T01:27:46.025Z,50.00
2019-03-21T01:30:14.466Z,51.23
2019-03-21T01:32:41.963Z,53.80
2019-03-21T01:35:09.515Z,47.30
2019-03-21T01:37:36.879Z,56.03
2019-03-21T01:40:06.010Z,49.13
2019-03-21T01:42:33.382Z,47.47
2019-03-21T01:45:00.862Z,46.60
2019-03-21T01:47:28.408Z,43.70
2019-03-21T01:49:55.983Z,52.03
2019-03-21T01:52:23.329Z,45.77
2019-03-21T01:54:50.695Z,47.90
2019-03-21T01:57:18.192Z,54.23
2019-03-21T01:59:45.516Z,49.17
2019-03-21T02:02:13.001Z,52.43
2019-03-21T02:04:40.564Z,55.67
2019-03-21T02:07:08.101Z,57.00
2019-03-21T02:09:35.702Z,66.00
2019-03-21T02:12:03.201Z,58.57
2019-03-21T02:14:30.771Z,55.43
2019-03-21T02:16:58.346Z,57.70
2019-03-21T02:19:25.894Z,59.90
2019-03-21T02:21:53.349Z,57.63
2019-03-21T02:24:20.852Z,59.70
2019-03-21T02:26:48.299Z,55.77
2019-03-21T02:29:15.758Z,54.57
2019-03-21T02:31:43.151Z,50.00
2019-03-21T02:34:10.515Z,56.10
2019-03-21T02:36:37.980Z,53.60
2019-03-21T02:39:06.210Z,46.83
2019-03-21T02:41:33.703Z,46.60
2019-03-21T02:44:01.221Z,43.13
2019-03-21T02:46:28.699Z,47.13
2019-03-21T02:48:56.200Z,46.30
2019-03-21T02:51:23.670Z,45.33
2019-03-21T02:53:51.148Z,51.30
2019-03-21T02:56:19.140Z,39.70
2019-03-21T02:58:46.518Z,43.90
2019-03-21T03:01:14.024Z,43.13
2019-03-21T03:03:41.366Z,40.83
2019-03-21T03:06:08.694Z,46.90
2019-03-21T03:08:36.212Z,46.13
2019-03-21T03:11:04.513Z,41.30
2019-03-21T03:13:31.915Z,46.27
2019-03-21T03:15:59.544Z,41.80
2019-03-21T03:18:26.921Z,49.40
2019-03-21T03:20:54.378Z,51.93
2019-03-21T03:23:21.881Z,50.73
2019-03-21T03:25:51.184Z,52.30
2019-03-21T03:28:21.004Z,49.47
2019-03-21T03:30:48.625Z,49.33
2019-03-21T03:33:16.190Z,48.50
2019-03-21T03:35:43.740Z,44.47
2019-03-21T03:38:11.249Z,45.40
2019-03-21T03:40:41.602Z,50.23
2019-03-21T03:43:09.178Z,47.17
2019-03-21T03:45:38.476Z,46.53
2019-03-21T03:48:06.356Z,47.67
2019-03-21T03:50:33.807Z,45.30
2019-03-21T03:53:01.287Z,47.33
2019-03-21T03:55:28.866Z,42.87
2019-03-21T03:57:57.499Z,44.57
2019-03-21T04:00:25.101Z,44.23
2019-03-21T04:02:52.997Z,46.73
2019-03-21T04:05:20.585Z,45.40
2019-03-21T04:07:48.255Z,45.07
2019-03-21T04:10:18.609Z,41.10
2019-03-21T04:12:46.190Z,45.67
2019-03-21T04:15:13.877Z,43.63
2019-03-21T04:17:41.348Z,43.00
2019-03-21T04:20:11.041Z,43.93
2019-03-21T04:22:38.641Z,43.33
2019-03-21T04:25:07.706Z,45.27
2019-03-21T04:27:35.392Z,46.47
2019-03-21T04:30:03.995Z,45.97
2019-03-21T04:32:31.445Z,45.33
2019-03-21T04:34:58.801Z,46.10
2019-03-21T04:37:26.228Z,43.27
2019-03-21T04:39:53.666Z,46.27
2019-03-21T04:42:21.465Z,47.83
2019-03-21T04:44:48.900Z,49.40
2019-03-21T04:47:16.358Z,46.03
2019-03-21T04:49:43.923Z,45.70
2019-03-21T04:52:11.341Z,47.00
2019-03-21T04:54:38.811Z,44.57
2019-03-21T04:57:06.254Z,46.13
2019-03-21T04:59:33.653Z,44.60
2019-03-21T05:02:01.113Z,44.20
2019-03-21T05:04:28.554Z,43.93
2019-03-21T05:06:56.059Z,45.10
2019-03-21T05:09:23.403Z,46.23
2019-03-21T05:11:50.758Z,44.63
2019-03-21T05:14:18.241Z,40.23
2019-03-21T05:16:45.692Z,39.47
2019-03-21T05:19:13.275Z,39.63
2019-03-21T05:21:40.703Z,40.70
2019-03-21T05:24:08.084Z,40.47
2019-03-21T05:26:35.456Z,40.13
2019-03-21T05:29:02.937Z,38.43
2019-03-21T05:31:31.681Z,39.53
2019-03-21T05:33:59.031Z,39.00
2019-03-21T05:36:26.756Z,41.13
2019-03-21T05:38:54.310Z,39.23
2019-03-21T05:41:21.802Z,39.83
2019-03-21T05:43:56.373Z,38.50
2019-03-21T05:46:26.919Z,38.40
2019-03-21T05:48:53.342Z,39.33
2019-03-21T05:51:20.975Z,37.20
2019-03-21T05:53:48.412Z,37.27
2019-03-21T05:56:35.321Z,34.40
2019-03-21T05:59:02.887Z,39.57
2019-03-21T06:01:30.329Z,39.13
2019-03-21T06:03:57.736Z,35.97
2019-03-21T06:06:39.299Z,35.90
2019-03-21T06:09:08.346Z,38.13
2019-03-21T06:11:36.186Z,37.73
2019-03-21T06:14:03.930Z,40.70
2019-03-21T06:16:37.660Z,39.30
2019-03-21T06:19:25.095Z,39.87
2019-03-21T06:22:33.172Z,40.40
2019-03-21T06:25:44.137Z,42.93
2019-03-21T06:28:11.654Z,45.67
2019-03-21T06:30:39.152Z,46.93
2019-03-21T06:33:06.578Z,50.23
2019-03-21T06:35:34.185Z,51.90
2019-03-21T06:38:01.694Z,52.50
2019-03-21T06:40:29.054Z,53.37
2019-03-21T06:42:56.453Z,55.13
2019-03-21T06:45:24.169Z,56.60
2019-03-21T06:47:53.129Z,63.03
2019-03-21T06:50:24.450Z,60.70
2019-03-21T06:52:53.904Z,59.37
2019-03-21T06:55:21.275Z,61.70
2019-03-21T06:57:49.007Z,60.50
2019-03-21T07:00:16.569Z,66.60
2019-03-21T07:02:43.967Z,68.87
2019-03-21T07:05:11.593Z,65.50
2019-03-21T07:07:39.159Z,65.17
2019-03-21T07:10:07.698Z,68.77
2019-03-21T07:12:35.962Z,75.00
2019-03-21T07:15:04.653Z,69.77
2019-03-21T07:17:32.256Z,71.20
2019-03-21T07:19:59.766Z,68.30
2019-03-21T07:22:27.126Z,70.50
2019-03-21T07:24:54.728Z,70.23
2019-03-21T07:27:22.236Z,67.20
2019-03-21T07:29:49.947Z,68.47
2019-03-21T07:32:17.424Z,69.37
2019-03-21T07:34:44.941Z,74.20
2019-03-21T07:37:13.324Z,77.70
2019-03-21T07:39:40.764Z,77.00
2019-03-21T07:42:08.254Z,77.77
2019-03-21T07:44:35.799Z,73.77
2019-03-21T07:47:12.091Z,78.17
2019-03-21T07:49:32.919Z,80.93
2019-03-21T07:52:00.486Z,74.30
2019-03-21T07:54:27.959Z,74.97
2019-03-21T07:56:55.678Z,77.47
2019-03-21T07:59:23.280Z,79.90
2019-03-21T08:01:50.656Z,78.33
2019-03-21T08:04:18.159Z,77.77
2019-03-21T08:06:45.831Z,79.37
2019-03-21T08:09:13.346Z,74.27
2019-03-21T08:11:40.963Z,75.63
2019-03-21T08:14:08.313Z,75.13
2019-03-21T08:16:35.865Z,71.70
2019-03-21T08:19:03.475Z,75.13
2019-03-21T08:21:30.813Z,74.03
2019-03-21T08:23:58.386Z,75.07
2019-03-21T08:26:25.978Z,74.77
2019-03-21T08:28:53.337Z,69.03
2019-03-21T08:31:21.246Z,72.17
2019-03-21T08:33:49.250Z,70.00
2019-03-21T08:36:16.698Z,71.53
2019-03-21T08:38:44.428Z,68.07
2019-03-21T08:41:12.016Z,71.90
2019-03-21T08:43:39.474Z,66.80
2019-03-21T08:46:06.948Z,69.47
2019-03-21T08:48:34.446Z,65.93
2019-03-21T08:51:08.345Z,65.97
2019-03-21T08:53:31.178Z,67.20
2019-03-21T08:55:58.704Z,67.77
2019-03-21T08:58:26.163Z,65.30
2019-03-21T09:00:53.718Z,66.47
2019-03-21T09:03:21.114Z,65.37
2019-03-21T09:05:48.608Z,65.07
2019-03-21T09:08:16.180Z,66.07
2019-03-21T09:10:43.551Z,65.37
2019-03-21T09:13:30.351Z,64.67
2019-03-21T09:15:57.841Z,65.17
2019-03-21T09:18:25.303Z,68.30
2019-03-21T09:20:52.647Z,64.80
2019-03-21T09:23:20.237Z,64.77
2019-03-21T09:25:47.865Z,62.17
2019-03-21T09:28:15.356Z,60.07
2019-03-21T09:30:42.769Z,63.33
2019-03-21T09:33:10.234Z,60.07
2019-03-21T09:35:37.704Z,58.77
2019-03-21T09:38:05.219Z,57.43
2019-03-21T09:40:32.772Z,58.97
2019-03-21T09:43:02.859Z,57.80
2019-03-21T09:45:29.750Z,54.93
2019-03-21T09:47:57.351Z,52.97
2019-03-21T09:50:26.569Z,51.77
2019-03-21T09:52:54.098Z,52.20
2019-03-21T09:55:21.561Z,48.53
2019-03-21T09:57:49.019Z,47.67
2019-03-21T10:00:26.883Z,47.37
2019-03-21T10:02:54.410Z,46.47
2019-03-21T10:05:21.885Z,43.73
2019-03-21T10:07:49.254Z,42.93
2019-03-21T10:10:27.038Z,41.60
2019-03-21T10:12:55.552Z,38.90
2019-03-21T10:15:23.334Z,36.53
2019-03-21T10:17:50.915Z,34.83
2019-03-21T10:20:18.320Z,33.77
2019-03-21T10:22:45.801Z,31.87
2019-03-21T10:25:13.378Z,30.90
2019-03-21T10:27:40.874Z,31.77
2019-03-21T10:30:09.181Z,30.73
2019-03-21T10:32:36.762Z,29.73
2019-03-21T10:35:04.903Z,29.03
2019-03-21T10:37:32.377Z,28.27
2019-03-21T10:39:59.773Z,29.23
2019-03-21T10:42:27.206Z,26.63
2019-03-21T10:44:54.650Z,26.73
2019-03-21T10:47:22.224Z,26.57
2019-03-21T10:49:49.894Z,27.03
2019-03-21T10:52:17.391Z,27.67
2019-03-21T10:54:45.261Z,26.47
2019-03-21T10:57:12.516Z,27.40
2019-03-21T10:59:40.125Z,25.13
2019-03-21T11:02:07.821Z,26.20
2019-03-21T11:04:35.517Z,25.87
2019-03-21T11:07:01.957Z,25.93
2019-03-21T11:09:29.830Z,24.57
2019-03-21T11:11:57.494Z,26.53
2019-03-21T11:14:24.990Z,26.50
2019-03-21T11:16:52.570Z,25.30
2019-03-21T11:19:20.157Z,23.30
2019-03-21T11:21:47.669Z,24.63
2019-03-21T11:24:15.294Z,24.47
2019-03-21T11:26:42.765Z,25.00
2019-03-21T11:29:10.251Z,23.77
2019-03-21T11:31:37.714Z,23.60
2019-03-21T11:34:05.294Z,22.73
2019-03-21T11:36:38.223Z,22.87
2019-03-21T11:39:02.166Z,22.97
2019-03-21T11:41:29.551Z,23.17
2019-03-21T11:43:56.929Z,23.53
2019-03-21T11:46:24.493Z,23.10
2019-03-21T11:48:52.143Z,23.03
2019-03-21T11:51:19.726Z,22.77
2019-03-21T11:53:47.183Z,22.10
2019-03-21T11:56:14.684Z,23.00
2019-03-21T11:58:42.265Z,21.37
2019-03-21T12:01:09.827Z,21.00
2019-03-21T12:03:37.337Z,23.60
2019-03-21T12:06:04.913Z,21.40
2019-03-21T12:08:32.363Z,21.20
2019-03-21T12:10:59.770Z,20.70
2019-03-21T12:13:27.308Z,21.73
2019-03-21T12:15:54.671Z,20.73
2019-03-21T12:18:22.208Z,21.23
2019-03-21T12:20:49.571Z,20.63
2019-03-21T12:23:17.055Z,20.67
2019-03-21T12:25:44.550Z,20.53
2019-03-21T12:28:12.027Z,20.00
2019-03-21T12:30:40.615Z,20.83
2019-03-21T12:33:08.350Z,23.03
2019-03-21T12:35:36.766Z,22.43
2019-03-21T12:38:04.942Z,21.07
2019-03-21T12:40:32.457Z,21.17
2019-03-21T12:42:59.919Z,20.40
2019-03-21T12:45:27.376Z,20.87
2019-03-21T12:47:54.979Z,21.00
2019-03-21T12:50:22.484Z,20.63
2019-03-21T12:52:50.195Z,20.07
2019-03-21T12:55:17.903Z,20.70
2019-03-21T12:57:45.258Z,20.27
2019-03-21T13:00:12.909Z,21.03
2019-03-21T13:02:43.010Z,20.90
2019-03-21T13:05:15.389Z,20.43
2019-03-21T13:07:42.778Z,20.57
2019-03-21T13:10:10.408Z,19.47
2019-03-21T13:12:37.927Z,20.57
2019-03-21T13:15:05.948Z,19.83
2019-03-21T13:17:33.533Z,18.60
2019-03-21T13:20:01.002Z,21.23
2019-03-21T13:22:28.493Z,20.17
2019-03-21T13:24:55.850Z,19.03
2019-03-21T13:27:23.425Z,21.83
2019-03-21T13:29:51.003Z,19.90
2019-03-21T13:32:18.443Z,18.63
2019-03-21T13:34:45.800Z,21.80
2019-03-21T13:37:13.316Z,19.80
2019-03-21T13:39:40.680Z,21.73
2019-03-21T13:42:08.530Z,20.20
2019-03-21T13:44:35.934Z,22.37
2019-03-21T13:47:03.489Z,22.43
2019-03-21T13:49:30.935Z,22.27
2019-03-21T13:51:58.511Z,23.07
2019-03-21T13:54:25.934Z,20.77
2019-03-21T13:56:53.406Z,21.90
2019-03-21T13:59:23.341Z,21.63
2019-03-21T14:01:50.982Z,23.07
2019-03-21T14:04:18.535Z,22.47
2019-03-21T14:06:46.152Z,24.13
2019-03-21T14:09:13.584Z,24.20
2019-03-21T14:11:40.941Z,23.43
2019-03-21T14:14:08.325Z,22.90
2019-03-21T14:16:35.682Z,23.83
2019-03-21T14:19:03.119Z,24.10
2019-03-21T14:21:30.718Z,23.00
2019-03-21T14:23:58.185Z,24.97
2019-03-21T14:26:25.547Z,24.57
2019-03-21T14:28:52.999Z,24.07
2019-03-21T14:31:20.373Z,24.93
2019-03-21T14:33:47.931Z,25.20
2019-03-21T14:36:15.418Z,25.63
2019-03-21T14:38:42.808Z,25.57
2019-03-21T14:41:10.177Z,26.33
2019-03-21T14:43:37.682Z,25.93
2019-03-21T14:46:05.148Z,26.20
2019-03-21T14:48:32.573Z,25.53
2019-03-21T14:51:00.038Z,27.17
2019-03-21T14:53:29.040Z,26.23
2019-03-21T14:55:56.783Z,27.37
2019-03-21T14:58:24.182Z,26.00
2019-03-21T15:00:51.823Z,26.87
2019-03-21T15:03:19.479Z,26.10
2019-03-21T15:05:46.878Z,27.37
2019-03-21T15:08:14.382Z,27.07
2019-03-21T15:10:41.827Z,28.77
2019-03-21T15:13:09.271Z,29.73
2019-03-21T15:15:36.850Z,29.03
2019-03-21T15:18:04.314Z,29.90
2019-03-21T15:20:31.794Z,29.03
2019-03-21T15:22:59.267Z,30.23
2019-03-21T15:25:26.673Z,29.47
2019-03-21T15:27:54.250Z,28.97
2019-03-21T15:30:21.799Z,30.57
2019-03-21T15:32:49.479Z,30.33
2019-03-21T15:35:17.309Z,30.13
2019-03-21T15:37:44.864Z,31.13
2019-03-21T15:40:12.885Z,29.80
2019-03-21T15:42:40.282Z,31.20
2019-03-21T15:45:21.551Z,30.13
2019-03-21T15:47:39.630Z,31.70
2019-03-21T15:50:08.166Z,30.53
2019-03-21T15:52:36.469Z,30.37
2019-03-21T15:55:04.943Z,30.10
2019-03-21T15:57:32.350Z,31.37
2019-03-21T15:59:59.911Z,30.77
2019-03-21T16:02:27.452Z,30.67
2019-03-21T16:04:54.959Z,31.93
2019-03-21T16:07:22.503Z,29.33
2019-03-21T16:09:49.855Z,29.73
2019-03-21T16:12:17.359Z,31.30
2019-03-21T16:14:44.786Z,30.53
2019-03-21T16:17:12.384Z,30.20
2019-03-21T16:19:41.689Z,29.07
2019-03-21T16:22:09.174Z,30.80
2019-03-21T16:24:36.758Z,27.87
2019-03-21T16:27:04.263Z,26.73
2019-03-21T16:29:31.727Z,27.90
2019-03-21T16:31:59.211Z,25.07
2019-03-21T16:34:26.598Z,25.33
2019-03-21T16:36:54.089Z,25.30
2019-03-21T16:39:21.628Z,24.70
2019-03-21T16:41:49.348Z,26.43
2019-03-21T16:44:16.709Z,25.87
2019-03-21T16:46:44.062Z,25.17
2019-03-21T16:49:11.528Z,25.73
2019-03-21T16:51:39.985Z,25.57
2019-03-21T16:54:16.573Z,25.73
2019-03-21T16:56:36.835Z,26.50
2019-03-21T16:59:04.302Z,27.00
2019-03-21T17:01:31.890Z,27.17
2019-03-21T17:03:59.392Z,26.50
2019-03-21T17:06:26.853Z,26.27
2019-03-21T17:08:54.214Z,24.97
2019-03-21T17:11:21.726Z,25.50
2019-03-21T17:13:49.295Z,26.07
2019-03-21T17:16:17.168Z,25.77
2019-03-21T17:18:44.595Z,24.37
2019-03-21T17:21:12.089Z,24.70
2019-03-21T17:23:39.787Z,22.27
2019-03-21T17:26:07.440Z,22.67
2019-03-21T17:28:34.923Z,22.27
2019-03-21T17:31:02.428Z,21.13
2019-03-21T17:33:30.182Z,20.97
2019-03-21T17:35:57.681Z,21.47
2019-03-21T17:38:25.154Z,20.47
2019-03-21T17:40:52.791Z,20.77
2019-03-21T17:43:20.496Z,19.07
2019-03-21T17:45:48.075Z,19.23
2019-03-21T17:48:15.680Z,19.63
2019-03-21T17:50:43.070Z,17.77
2019-03-21T17:53:10.665Z,21.27
2019-03-21T17:55:38.141Z,19.20
2019-03-21T17:58:05.633Z,19.07
2019-03-21T18:00:33.507Z,18.90
2019-03-21T18:03:01.257Z,17.73
2019-03-21T18:05:28.640Z,17.73
2019-03-21T18:07:56.233Z,18.03
2019-03-21T18:10:28.507Z,18.53
2019-03-21T18:12:56.481Z,17.47
2019-03-21T18:15:24.128Z,17.63
2019-03-21T18:17:51.643Z,18.43
2019-03-21T18:20:19.117Z,18.07
2019-03-21T18:22:46.478Z,17.50
2019-03-21T18:25:13.950Z,19.00
2019-03-21T18:27:41.518Z,19.13
2019-03-21T18:30:09.541Z,19.07
2019-03-21T18:32:37.918Z,19.07
2019-03-21T18:35:05.818Z,20.30
2019-03-21T18:37:33.695Z,21.13
2019-03-21T18:40:01.316Z,19.73
2019-03-21T18:42:28.773Z,20.87
2019-03-21T18:44:56.424Z,20.43
2019-03-21T18:47:24.036Z,21.57
2019-03-21T18:49:51.514Z,19.63
2019-03-21T18:52:19.239Z,20.77
2019-03-21T18:54:46.761Z,20.03
2019-03-21T18:57:14.225Z,20.37
2019-03-21T18:59:41.710Z,19.93
2019-03-21T19:02:09.135Z,22.30
2019-03-21T19:04:36.818Z,20.10
2019-03-21T19:07:04.397Z,21.73
2019-03-21T19:09:32.090Z,20.23
2019-03-21T19:11:59.579Z,22.47
2019-03-21T19:14:26.918Z,22.20
2019-03-21T19:16:54.887Z,22.33
2019-03-21T19:19:22.305Z,21.17
2019-03-21T19:21:49.859Z,20.50
2019-03-21T19:24:17.385Z,20.87
2019-03-21T19:26:44.936Z,21.07
2019-03-21T19:29:14.866Z,22.37
2019-03-21T19:31:41.761Z,21.80
2019-03-21T19:34:09.327Z,22.20
2019-03-21T19:36:36.682Z,22.30
2019-03-21T19:39:08.875Z,23.07
2019-03-21T19:41:36.441Z,22.93
2019-03-21T19:44:03.894Z,23.17
2019-03-21T19:46:31.382Z,22.60
2019-03-21T19:48:58.947Z,22.97
2019-03-21T19:51:26.501Z,23.50
2019-03-21T19:53:54.008Z,23.23
2019-03-21T19:56:21.473Z,21.80
2019-03-21T19:58:49.054Z,23.57
2019-03-21T20:01:16.558Z,24.33
2019-03-21T20:03:44.107Z,24.43
2019-03-21T20:06:11.684Z,24.80
2019-03-21T20:08:39.069Z,21.90
2019-03-21T20:11:06.620Z,23.27
2019-03-21T20:13:34.046Z,24.87
2019-03-21T20:16:01.445Z,23.30
2019-03-21T20:18:28.903Z,22.60
2019-03-21T20:20:56.258Z,23.00
2019-03-21T20:23:23.874Z,22.73
2019-03-21T20:25:51.347Z,21.77
2019-03-21T20:28:19.068Z,24.10
2019-03-21T20:30:46.986Z,22.00
2019-03-21T20:33:14.554Z,22.10
2019-03-21T20:35:42.044Z,23.83
2019-03-21T20:38:09.532Z,22.73
2019-03-21T20:40:39.073Z,20.83
2019-03-21T20:43:07.248Z,22.67
2019-03-21T20:45:34.731Z,21.77
2019-03-21T20:48:02.197Z,22.33
2019-03-21T20:50:29.538Z,23.03
2019-03-21T20:52:57.046Z,21.50
2019-03-21T20:55:24.630Z,21.70
2019-03-21T20:57:52.174Z,21.90
2019-03-21T21:00:20.074Z,22.20
2019-03-21T21:02:47.881Z,22.27
2019-03-21T21:05:15.532Z,22.00
2019-03-21T21:07:43.146Z,23.37
2019-03-21T21:10:11.079Z,23.90
2019-03-21T21:12:38.642Z,21.93
2019-03-21T21:15:06.654Z,22.00
2019-03-21T21:17:34.209Z,23.27
2019-03-21T21:20:01.793Z,23.10
2019-03-21T21:22:29.286Z,22.80
2019-03-21T21:24:56.729Z,22.30
2019-03-21T21:27:24.322Z,22.77
2019-03-21T21:29:51.706Z,22.47
2019-03-21T21:32:19.171Z,22.33
2019-03-21T21:34:46.512Z,23.10
2019-03-21T21:37:13.917Z,21.30
2019-03-21T21:39:41.397Z,23.20
2019-03-21T21:42:08.848Z,22.67
2019-03-21T21:44:36.465Z,23.30
2019-03-21T21:47:04.143Z,22.77
2019-03-21T21:49:31.601Z,20.73
2019-03-21T21:51:58.990Z,20.77
2019-03-21T21:54:26.539Z,21.73
2019-03-21T21:56:54.007Z,21.67
2019-03-21T21:59:21.776Z,20.50
2019-03-21T22:01:49.225Z,20.47
2019-03-21T22:04:16.702Z,19.93
2019-03-21T22:06:44.138Z,17.80
2019-03-21T22:09:11.694Z,17.77
2019-03-21T22:11:39.164Z,17.20
2019-03-21T22:14:06.550Z,17.40
2019-03-21T22:16:34.377Z,16.77
2019-03-21T22:19:01.818Z,15.87
2019-03-21T22:21:29.710Z,13.70
2019-03-21T22:23:57.148Z,13.63
2019-03-21T22:26:29.562Z,14.03
2019-03-21T22:28:53.916Z,14.17
2019-03-21T22:31:22.073Z,12.23
2019-03-21T22:33:49.619Z,12.40
2019-03-21T22:36:17.013Z,12.93
2019-03-21T22:38:44.499Z,11.97
2019-03-21T22:41:11.837Z,11.07
2019-03-21T22:43:39.427Z,12.80
2019-03-21T22:46:06.906Z,10.60
2019-03-21T22:48:34.367Z,10.87
2019-03-21T22:51:01.863Z,10.93
2019-03-21T22:53:30.175Z,11.23
2019-03-21T22:55:57.798Z,10.60
2019-03-21T22:58:31.687Z,9.90
2019-03-21T23:00:54.670Z,9.97
2019-03-21T23:03:23.158Z,9.90
2019-03-21T23:05:50.747Z,11.30
2019-03-21T23:08:18.069Z,8.60
2019-03-21T23:10:45.549Z,9.17
2019-03-21T23:13:13.157Z,9.57
2019-03-21T23:15:40.521Z,10.07
2019-03-21T23:18:08.086Z,8.53
2019-03-21T23:20:35.450Z,9.30
2019-03-21T23:23:03.013Z,9.80
2019-03-21T23:25:30.493Z,9.57
2019-03-21T23:27:57.974Z,9.13
2019-03-21T23:30:25.538Z,8.57
2019-03-21T23:32:52.891Z,8.93
2019-03-21T23:35:20.488Z,9.77
2019-03-21T23:37:48.437Z,9.53
2019-03-21T23:40:16.009Z,8.47
2019-03-21T23:42:43.616Z,8.17
2019-03-21T23:45:11.346Z,9.10
2019-03-21T23:47:38.891Z,8.63
2019-03-21T23:50:06.613Z,7.70
2019-03-21T23:52:34.078Z,8.67
2019-03-21T23:55:01.550Z,8.00
2019-03-21T23:57:28.940Z,8.80
2019-03-21T23:59:56.303Z,7.87
